createdAt,value
2016-02-09T00:00:32.176Z,5.59
2016-02-09T00:01:32.178Z,5.61
2016-02-09T00:02:32.167Z,5.76
2016-02-09T00:03:32.170Z,5.77
2016-02-09T00:04:32.156Z,5.95
2016-02-09T00:05:32.160Z,5.92
2016-02-09T00:06:32.162Z,5.99
2016-02-09T00:07:32.149Z,6.1
2016-02-09T00:08:32.152Z,6.15
2016-02-09T00:09:32.140Z,6.29
2016-02-09T00:10:32.142Z,6.28
2016-02-09T00:11:32.145Z,6.29
2016-02-09T00:12:32.132Z,6.28
2016-02-09T00:13:32.135Z,6.26
2016-02-09T00:14:32.136Z,6.26
2016-02-09T00:15:32.156Z,6.28
2016-02-09T00:16:32.142Z,6.35
2016-02-09T00:17:32.129Z,6.32
2016-02-09T00:18:32.132Z,6.44
2016-02-09T00:19:32.120Z,6.34
2016-02-09T00:20:32.170Z,6.34
2016-02-09T00:21:33.719Z,6.43
2016-02-09T00:22:32.096Z,6.52
2016-02-09T00:23:32.107Z,6.49
2016-02-09T00:24:32.110Z,6.57
2016-02-09T00:25:32.098Z,6.52
2016-02-09T00:26:32.100Z,6.5
2016-02-09T00:27:32.090Z,6.65
2016-02-09T00:28:32.109Z,6.75
2016-02-09T00:29:32.095Z,6.68
2016-02-09T00:30:32.082Z,6.85
2016-02-09T00:31:32.101Z,6.95
2016-02-09T00:32:32.072Z,6.9
2016-02-09T00:33:32.090Z,7.03
2016-02-09T00:34:32.077Z,7.05
2016-02-09T00:35:32.096Z,7.19
2016-02-09T00:36:32.067Z,7.19
2016-02-09T00:37:32.070Z,7.23
2016-02-09T00:38:32.072Z,7.28
2016-02-09T00:39:32.059Z,7.37
2016-02-09T00:40:32.047Z,7.36
2016-02-09T00:41:32.067Z,7.37
2016-02-09T00:42:32.055Z,7.37
2016-02-09T00:43:32.058Z,7.31
2016-02-09T00:44:32.044Z,7.25
2016-02-09T00:45:32.033Z,7.18
2016-02-09T00:46:32.035Z,7.13
2016-02-09T00:47:32.037Z,7.08
2016-02-09T00:48:32.026Z,6.97
2016-02-09T00:49:32.029Z,6.93
2016-02-09T00:50:32.032Z,6.96
2016-02-09T00:51:32.034Z,6.83
2016-02-09T00:52:32.012Z,6.83
2016-02-09T00:53:32.014Z,6.75
2016-02-09T00:54:32.018Z,6.74
2016-02-09T00:55:32.005Z,6.74
2016-02-09T00:56:32.023Z,6.83
2016-02-09T00:57:32.026Z,6.78
2016-02-09T00:58:31.997Z,6.75
2016-02-09T00:59:32.000Z,6.75
2016-02-09T01:00:32.002Z,6.72
2016-02-09T01:01:32.005Z,6.75
2016-02-09T01:02:31.992Z,6.74
2016-02-09T01:03:31.996Z,6.74
2016-02-09T01:04:31.984Z,6.71
2016-02-09T01:05:31.986Z,6.68
2016-02-09T01:06:31.988Z,6.71
2016-02-09T01:07:31.976Z,6.72
2016-02-09T01:08:31.978Z,6.7
2016-02-09T01:09:31.981Z,6.7
2016-02-09T01:10:31.984Z,6.62
2016-02-09T01:11:31.971Z,6.68
2016-02-09T01:12:31.958Z,6.65
2016-02-09T01:13:31.976Z,6.62
2016-02-09T01:14:31.948Z,6.64
2016-02-09T01:15:31.950Z,6.59
2016-02-09T01:16:31.985Z,6.52
2016-02-09T01:17:31.957Z,6.46
2016-02-09T01:18:31.944Z,6.39
2016-02-09T01:19:31.962Z,6.32
2016-02-09T01:20:31.933Z,6.26
2016-02-09T01:21:31.936Z,6.2
2016-02-09T01:22:31.939Z,6.26
2016-02-09T01:23:31.925Z,6.17
2016-02-09T01:24:31.928Z,6.2
2016-02-09T01:25:31.916Z,6.19
2016-02-09T01:26:31.918Z,6.31
2016-02-09T01:27:31.937Z,6.32
2016-02-09T01:28:31.908Z,6.28
2016-02-09T01:29:31.910Z,6.34
2016-02-09T01:30:31.915Z,6.28
2016-02-09T01:31:31.903Z,6.28
2016-02-09T01:32:31.906Z,6.39
2016-02-09T01:33:31.908Z,6.29
2016-02-09T01:34:31.895Z,6.22
2016-02-09T01:35:31.898Z,6.34
2016-02-09T01:36:31.932Z,6.28
2016-02-09T01:37:31.887Z,6.38
2016-02-09T01:38:31.875Z,6.29
2016-02-09T01:39:31.879Z,6.34
2016-02-09T01:40:31.896Z,6.29
2016-02-09T01:41:31.884Z,6.32
2016-02-09T01:42:31.886Z,6.35
2016-02-09T01:43:31.858Z,6.35
2016-02-09T01:44:31.861Z,6.41
2016-02-09T01:45:31.864Z,6.36
2016-02-09T01:46:31.883Z,6.39
2016-02-09T01:47:31.855Z,6.41
2016-02-09T01:48:31.858Z,6.43
2016-02-09T01:49:31.861Z,6.44
2016-02-09T01:50:31.847Z,6.39
2016-02-09T01:51:31.849Z,6.41
2016-02-09T01:52:31.855Z,6.49
2016-02-09T01:53:31.843Z,6.41
2016-02-09T01:54:31.830Z,6.39
2016-02-09T01:55:31.823Z,6.38
2016-02-09T01:56:31.856Z,6.57
2016-02-09T01:57:31.827Z,6.47
2016-02-09T01:58:31.831Z,6.47
2016-02-09T01:59:31.833Z,6.53
2016-02-09T02:00:31.822Z,6.5
2016-02-09T02:01:31.810Z,6.49
2016-02-09T02:02:31.843Z,6.5
2016-02-09T02:03:31.799Z,6.43
2016-02-09T02:04:31.786Z,6.38
2016-02-09T02:05:31.805Z,6.36
2016-02-09T02:06:31.823Z,6.41
2016-02-09T02:07:31.794Z,6.44
2016-02-09T02:08:31.797Z,6.39
2016-02-09T02:09:31.799Z,6.41
2016-02-09T02:10:31.787Z,6.39
2016-02-09T02:11:31.790Z,6.35
2016-02-09T02:12:31.807Z,6.31
2016-02-09T02:13:31.782Z,6.35
2016-02-09T02:14:31.783Z,6.31
2016-02-09T02:15:31.787Z,6.34
2016-02-09T02:16:31.774Z,6.36
2016-02-09T02:17:31.761Z,6.32
2016-02-09T02:18:31.763Z,6.31
2016-02-09T02:19:31.754Z,6.39
2016-02-09T02:20:31.757Z,6.31
2016-02-09T02:21:31.760Z,6.35
2016-02-09T02:22:31.748Z,6.28
2016-02-09T02:23:31.751Z,6.2
2016-02-09T02:24:31.764Z,6.29
2016-02-09T02:25:31.752Z,6.32
2016-02-09T02:26:31.739Z,6.25
2016-02-09T02:27:31.760Z,6.17
2016-02-09T02:28:31.746Z,6.25
2016-02-09T02:29:31.733Z,6.13
2016-02-09T02:30:31.736Z,6.09
2016-02-09T02:31:31.724Z,6.16
2016-02-09T02:32:31.727Z,6.09
2016-02-09T02:33:31.745Z,6.09
2016-02-09T02:34:31.716Z,6.13
2016-02-09T02:35:31.703Z,6.01
2016-02-09T02:36:31.721Z,6.01
2016-02-09T02:37:31.709Z,6.06
2016-02-09T02:38:31.711Z,6.12
2016-02-09T02:39:31.698Z,6.05
2016-02-09T02:40:31.701Z,6.15
2016-02-09T02:41:31.689Z,6.15
2016-02-09T02:42:31.708Z,6.16
2016-02-09T02:43:31.680Z,6.09
2016-02-09T02:44:31.697Z,6.25
2016-02-09T02:45:31.700Z,6.19
2016-02-09T02:46:31.672Z,6.26
2016-02-09T02:47:31.675Z,6.22
2016-02-09T02:48:31.677Z,6.16
2016-02-09T02:49:31.526Z,6.15
2016-02-09T02:50:31.669Z,6.22
2016-02-09T02:51:31.656Z,6.26
2016-02-09T02:52:31.674Z,6.25
2016-02-09T02:53:31.664Z,6.19
2016-02-09T02:54:31.650Z,6.19
2016-02-09T02:55:31.654Z,6.17
2016-02-09T02:56:31.656Z,6.25
2016-02-09T02:57:31.643Z,6.28
2016-02-09T02:58:31.645Z,6.26
2016-02-09T02:59:31.648Z,6.22
2016-02-09T03:00:31.636Z,6.22
2016-02-09T03:01:31.639Z,6.28
2016-02-09T03:02:31.625Z,6.43
2016-02-09T03:03:31.630Z,6.36
2016-02-09T03:04:31.617Z,6.36
2016-02-09T03:05:31.620Z,6.57
2016-02-09T03:06:31.622Z,6.5
2016-02-09T03:07:31.625Z,6.49
2016-02-09T03:08:31.627Z,6.59
2016-02-09T03:09:31.599Z,6.67
2016-02-09T03:10:31.602Z,6.74
2016-02-09T03:11:31.605Z,6.74
2016-02-09T03:12:31.608Z,6.78
2016-02-09T03:13:31.596Z,6.83
2016-02-09T03:14:31.599Z,6.92
2016-02-09T03:15:31.601Z,6.96
2016-02-09T03:16:31.605Z,7.03
2016-02-09T03:17:31.576Z,7.03
2016-02-09T03:18:31.611Z,7.04
2016-02-09T03:19:31.581Z,7.1
2016-02-09T03:20:31.570Z,7.15
2016-02-09T03:21:31.588Z,7.23
2016-02-09T03:22:31.562Z,7.15
2016-02-09T03:23:31.565Z,7.13
2016-02-09T03:24:31.568Z,7.19
2016-02-09T03:25:31.555Z,7.21
2016-02-09T03:26:31.558Z,7.22
2016-02-09T03:27:31.561Z,7.31
2016-02-09T03:28:31.564Z,7.28
2016-02-09T03:29:31.551Z,7.28
2016-02-09T03:30:31.554Z,7.23
2016-02-09T03:31:31.571Z,7.29
2016-02-09T03:32:31.543Z,7.36
2016-02-09T03:33:31.530Z,7.32
2016-02-09T03:34:31.549Z,7.23
2016-02-09T03:35:31.520Z,7.19
2016-02-09T03:36:31.523Z,7.19
2016-02-09T03:37:31.541Z,7.13
2016-02-09T03:38:31.530Z,7.23
2016-02-09T03:39:31.533Z,7.14
2016-02-09T03:40:31.551Z,7.21
2016-02-09T03:41:31.522Z,7.11
2016-02-09T03:42:31.509Z,7.19
2016-02-09T03:43:31.512Z,7.19
2016-02-09T03:44:31.531Z,7.13
2016-02-09T03:45:31.503Z,7.19
2016-02-09T03:46:31.493Z,7.14
2016-02-09T03:47:31.496Z,7.13
2016-02-09T03:48:31.515Z,7.1
2016-02-09T03:49:31.486Z,7.05
2016-02-09T03:50:31.476Z,7.04
2016-02-09T03:51:31.494Z,6.97
2016-02-09T03:52:31.482Z,6.92
2016-02-09T03:53:31.484Z,6.96
2016-02-09T03:54:31.487Z,6.87
2016-02-09T03:55:31.473Z,6.95
2016-02-09T03:56:31.461Z,6.9
2016-02-09T03:57:31.479Z,6.92
2016-02-09T03:58:31.466Z,6.78
2016-02-09T03:59:31.453Z,6.77
2016-02-09T04:00:31.461Z,6.8
2016-02-09T04:01:31.447Z,6.71
2016-02-09T04:02:31.450Z,6.68
2016-02-09T04:03:31.452Z,6.64
2016-02-09T04:04:31.455Z,6.67
2016-02-09T04:05:31.442Z,6.6
2016-02-09T04:06:31.445Z,6.52
2016-02-09T04:07:31.432Z,6.52
2016-02-09T04:08:31.437Z,6.5
2016-02-09T04:09:31.440Z,6.5
2016-02-09T04:10:31.426Z,6.34
2016-02-09T04:11:31.429Z,6.43
2016-02-09T04:12:31.431Z,6.38
2016-02-09T04:13:31.434Z,6.35
2016-02-09T04:14:31.426Z,6.34
2016-02-09T04:15:31.410Z,6.29
2016-02-09T04:16:31.446Z,6.26
2016-02-09T04:17:31.415Z,6.22
2016-02-09T04:18:31.387Z,6.15
2016-02-09T04:19:31.421Z,6.12
2016-02-09T04:20:31.392Z,6.17
2016-02-09T04:21:31.240Z,6.09
2016-02-09T04:22:31.414Z,6.07
2016-02-09T04:23:31.386Z,6.17
2016-02-09T04:24:31.388Z,6.07
2016-02-09T04:25:31.375Z,6.12
2016-02-09T04:26:31.410Z,6.06
2016-02-09T04:27:31.367Z,6.12
2016-02-09T04:28:31.370Z,6.06
2016-02-09T04:29:31.373Z,6.02
2016-02-09T04:30:31.360Z,6.13
2016-02-09T04:31:31.362Z,6.09
2016-02-09T04:32:31.365Z,5.99
2016-02-09T04:33:31.368Z,6.01
2016-02-09T04:34:31.356Z,6.01
2016-02-09T04:35:31.343Z,6.06
2016-02-09T04:36:31.346Z,5.97
2016-02-09T04:37:31.333Z,6.05
2016-02-09T04:38:31.336Z,5.91
2016-02-09T04:39:31.338Z,5.94
2016-02-09T04:40:31.326Z,5.92
2016-02-09T04:41:31.329Z,5.92
2016-02-09T04:42:31.331Z,5.97
2016-02-09T04:43:31.334Z,6.06
2016-02-09T04:44:31.337Z,6.01
2016-02-09T04:45:31.324Z,6.01
2016-02-09T04:46:31.311Z,6.13
2016-02-09T04:47:31.314Z,6.09
2016-02-09T04:48:31.332Z,6.02
2016-02-09T04:49:31.305Z,6.13
2016-02-09T04:50:31.308Z,6.16
2016-02-09T04:51:31.328Z,6.25
2016-02-09T04:52:31.300Z,6.25
2016-02-09T04:53:31.303Z,6.35
2016-02-09T04:54:31.305Z,6.31
2016-02-09T04:55:31.292Z,6.41
2016-02-09T04:56:31.295Z,6.46
2016-02-09T04:57:31.299Z,6.46
2016-02-09T04:58:31.270Z,6.44
2016-02-09T04:59:31.273Z,6.56
2016-02-09T05:00:31.276Z,6.56
2016-02-09T05:01:31.278Z,6.59
2016-02-09T05:02:31.265Z,6.65
2016-02-09T05:03:31.268Z,6.64
2016-02-09T05:04:31.257Z,6.67
2016-02-09T05:05:31.259Z,6.7
2016-02-09T05:06:31.262Z,6.72
2016-02-09T05:07:31.264Z,6.72
2016-02-09T05:08:31.251Z,6.83
2016-02-09T05:09:31.239Z,6.83
2016-02-09T05:10:31.257Z,6.95
2016-02-09T05:11:31.229Z,6.95
2016-02-09T05:12:31.279Z,7.01
2016-02-09T05:13:31.234Z,7.07
2016-02-09T05:14:31.238Z,7.08
2016-02-09T05:15:31.224Z,7.13
2016-02-09T05:16:31.242Z,7.18
2016-02-09T05:17:31.214Z,7.13
2016-02-09T05:18:31.217Z,7.18
2016-02-09T05:19:31.220Z,7.26
2016-02-09T05:20:31.237Z,7.29
2016-02-09T05:21:31.209Z,7.25
2016-02-09T05:22:31.202Z,7.25
2016-02-09T05:23:31.206Z,7.32
2016-02-09T05:24:31.208Z,7.36
2016-02-09T05:25:31.196Z,7.47
2016-02-09T05:26:31.198Z,7.48
2016-02-09T05:27:31.185Z,7.46
2016-02-09T05:28:31.204Z,7.43
2016-02-09T05:29:31.207Z,7.43
2016-02-09T05:30:31.190Z,7.46
2016-02-09T05:31:31.177Z,7.4
2016-02-09T05:32:31.179Z,7.46
2016-02-09T05:33:31.170Z,7.37
2016-02-09T05:34:31.172Z,7.41
2016-02-09T05:35:31.175Z,7.5
2016-02-09T05:36:31.161Z,7.48
2016-02-09T05:37:31.149Z,7.53
2016-02-09T05:38:31.152Z,7.47
2016-02-09T05:39:31.169Z,7.46
2016-02-09T05:40:31.157Z,7.4
2016-02-09T05:41:31.144Z,7.5
2016-02-09T05:42:31.147Z,7.46
2016-02-09T05:43:31.133Z,7.51
2016-02-09T05:44:31.136Z,7.56
2016-02-09T05:45:31.138Z,7.46
2016-02-09T05:46:31.126Z,7.5
2016-02-09T05:47:31.132Z,7.56
2016-02-09T05:48:31.134Z,7.53
2016-02-09T05:49:31.120Z,7.46
2016-02-09T05:50:31.107Z,7.47
2016-02-09T05:51:31.125Z,7.44
2016-02-09T05:52:31.145Z,7.55
2016-02-09T05:53:31.117Z,7.51
2016-02-09T05:54:31.105Z,7.58
2016-02-09T05:55:31.122Z,7.58
2016-02-09T05:56:31.094Z,7.48
2016-02-09T05:57:31.097Z,7.48
2016-02-09T05:58:31.084Z,7.51
2016-02-09T05:59:31.102Z,7.51
2016-02-09T06:00:31.090Z,7.51
2016-02-09T06:01:31.093Z,7.47
2016-02-09T06:02:31.095Z,7.46
2016-02-09T06:03:31.098Z,7.39
2016-02-09T06:04:31.101Z,7.39
2016-02-09T06:05:31.073Z,7.33
2016-02-09T06:06:31.060Z,7.36
2016-02-09T06:07:31.083Z,7.43
2016-02-09T06:08:31.070Z,7.46
2016-02-09T06:09:31.058Z,7.36
2016-02-09T06:10:31.061Z,7.39
2016-02-09T06:11:31.048Z,7.47
2016-02-09T06:12:31.050Z,7.44
2016-02-09T06:13:31.069Z,7.43
2016-02-09T06:14:31.041Z,7.61
2016-02-09T06:15:31.044Z,7.59
2016-02-09T06:16:31.047Z,7.59
2016-02-09T06:17:31.071Z,7.58
2016-02-09T06:18:31.027Z,7.66
2016-02-09T06:19:31.031Z,7.61
2016-02-09T06:20:31.033Z,7.56
2016-02-09T06:21:31.027Z,7.56
2016-02-09T06:22:31.030Z,7.56
2016-02-09T06:23:31.033Z,7.55
2016-02-09T06:24:31.021Z,7.66
2016-02-09T06:25:31.007Z,7.55
2016-02-09T06:26:31.031Z,7.64
2016-02-09T06:27:31.017Z,7.55
2016-02-09T06:28:31.020Z,7.53
2016-02-09T06:29:30.992Z,7.51
2016-02-09T06:30:31.012Z,7.44
2016-02-09T06:31:30.999Z,7.41
2016-02-09T06:32:30.986Z,7.41
2016-02-09T06:33:31.208Z,7.37
2016-02-09T06:34:30.992Z,7.4
2016-02-09T06:35:30.978Z,7.37
2016-02-09T06:36:30.998Z,7.29
2016-02-09T06:37:30.970Z,7.31
2016-02-09T06:38:30.972Z,7.32
2016-02-09T06:39:30.974Z,7.29
2016-02-09T06:40:30.962Z,7.28
2016-02-09T06:41:30.964Z,7.25
2016-02-09T06:42:30.983Z,7.31
2016-02-09T06:43:30.954Z,7.29
2016-02-09T06:44:30.957Z,7.29
2016-02-09T06:45:30.976Z,7.28
2016-02-09T06:46:30.963Z,7.33
2016-02-09T06:47:30.950Z,7.29
2016-02-09T06:48:30.968Z,7.29
2016-02-09T06:49:30.787Z,7.25
2016-02-09T06:50:30.929Z,7.29
2016-02-09T06:51:30.949Z,7.28
2016-02-09T06:52:30.940Z,7.31
2016-02-09T06:53:30.927Z,7.26
2016-02-09T06:54:30.930Z,7.31
2016-02-09T06:55:30.933Z,7.29
2016-02-09T06:56:30.936Z,7.31
2016-02-09T06:57:30.923Z,7.26
2016-02-09T06:58:30.928Z,7.23
2016-02-09T06:59:30.914Z,7.23
2016-02-09T07:00:30.918Z,7.25
2016-02-09T07:01:30.905Z,7.32
2016-02-09T07:02:30.908Z,7.31
2016-02-09T07:03:30.894Z,7.21
2016-02-09T07:04:30.991Z,7.26
2016-02-09T07:05:30.906Z,7.14
2016-02-09T07:06:30.892Z,7.18
2016-02-09T07:07:30.881Z,7.14
2016-02-09T07:08:30.898Z,7.18
2016-02-09T07:09:30.886Z,7.18
2016-02-09T07:10:30.888Z,7.11
2016-02-09T07:11:30.879Z,7.15
2016-02-09T07:12:30.881Z,7.08
2016-02-09T07:13:30.869Z,7.18
2016-02-09T07:14:30.887Z,7.19
2016-02-09T07:15:30.858Z,7.1
2016-02-09T07:16:30.862Z,7.14
2016-02-09T07:17:30.879Z,7.15
2016-02-09T07:18:30.867Z,7.18
2016-02-09T07:19:30.854Z,7.18
2016-02-09T07:20:30.856Z,7.19
2016-02-09T07:21:30.859Z,7.19
2016-02-09T07:22:30.831Z,7.21
2016-02-09T07:23:30.833Z,7.21
2016-02-09T07:24:30.841Z,7.21
2016-02-09T07:25:30.844Z,7.23
2016-02-09T07:26:30.861Z,7.29
2016-02-09T07:27:30.849Z,7.36
2016-02-09T07:28:30.821Z,7.36
2016-02-09T07:29:30.823Z,7.36
2016-02-09T07:30:30.826Z,7.4
2016-02-09T07:31:30.829Z,7.25
2016-02-09T07:32:30.831Z,7.37
2016-02-09T07:33:30.835Z,7.36
2016-02-09T07:34:30.806Z,7.32
2016-02-09T07:35:30.809Z,7.33
2016-02-09T07:36:30.811Z,7.28
2016-02-09T07:37:30.799Z,7.25
2016-02-09T07:38:30.802Z,7.31
2016-02-09T07:39:30.805Z,7.28
2016-02-09T07:40:30.808Z,7.31
2016-02-09T07:41:30.778Z,7.31
2016-02-09T07:42:30.782Z,7.29
2016-02-09T07:43:30.817Z,7.26
2016-02-09T07:44:30.773Z,7.29
2016-02-09T07:45:30.790Z,7.31
2016-02-09T07:46:30.809Z,7.26
2016-02-09T07:47:30.768Z,7.31
2016-02-09T07:48:30.770Z,7.32
2016-02-09T07:49:30.774Z,7.32
2016-02-09T07:50:30.760Z,7.25
2016-02-09T07:51:30.762Z,7.37
2016-02-09T07:52:30.765Z,7.48
2016-02-09T07:53:30.755Z,7.51
2016-02-09T07:54:30.741Z,7.47
2016-02-09T07:55:30.746Z,7.51
2016-02-09T07:56:30.733Z,7.59
2016-02-09T07:57:30.735Z,7.59
2016-02-09T07:58:30.739Z,7.61
2016-02-09T07:59:30.741Z,7.58
2016-02-09T08:00:30.728Z,7.53
2016-02-09T08:01:30.734Z,7.53
2016-02-09T08:02:30.720Z,7.59
2016-02-09T08:03:30.724Z,7.58
2016-02-09T08:04:30.726Z,7.64
2016-02-09T08:05:30.729Z,7.72
2016-02-09T08:06:30.717Z,7.69
2016-02-09T08:07:30.719Z,7.67
2016-02-09T08:08:30.722Z,7.69
2016-02-09T08:09:30.711Z,7.74
2016-02-09T08:10:30.697Z,7.81
2016-02-09T08:11:30.700Z,7.75
2016-02-09T08:12:30.719Z,7.77
2016-02-09T08:13:30.691Z,7.88
2016-02-09T08:14:30.681Z,7.81
2016-02-09T08:15:30.700Z,7.98
2016-02-09T08:16:30.686Z,8.01
2016-02-09T08:17:30.678Z,7.96
2016-02-09T08:18:30.680Z,8.13
2016-02-09T08:19:30.682Z,8.09
2016-02-09T08:20:30.671Z,8.21
2016-02-09T08:21:30.675Z,8.27
2016-02-09T08:22:30.678Z,8.23
2016-02-09T08:23:30.668Z,8.27
2016-02-09T08:24:30.670Z,8.34
2016-02-09T08:25:30.656Z,8.28
2016-02-09T08:26:30.660Z,8.26
2016-02-09T08:27:30.647Z,8.2
2016-02-09T08:28:30.665Z,8.17
2016-02-09T08:29:30.653Z,8.13
2016-02-09T08:30:30.655Z,8.14
2016-02-09T08:31:30.677Z,8.14
2016-02-09T08:32:30.680Z,8.09
2016-02-09T08:33:30.636Z,8.08
2016-02-09T08:34:30.638Z,8.09
2016-02-09T08:35:30.656Z,8.11
2016-02-09T08:36:30.629Z,8.09
2016-02-09T08:37:30.615Z,8.16
2016-02-09T08:38:30.617Z,8.06
2016-02-09T08:39:30.621Z,8.13
2016-02-09T08:40:30.621Z,8.11
2016-02-09T08:41:30.595Z,8.09
2016-02-09T08:42:30.585Z,8.13
2016-02-09T08:43:30.590Z,8.06
2016-02-09T08:44:30.550Z,8.06
2016-02-09T08:45:30.543Z,8.06
2016-02-09T08:46:30.556Z,8.16
2016-02-09T08:47:30.524Z,8.16
2016-02-09T08:48:30.505Z,8.06
2016-02-09T08:49:30.520Z,8.14
2016-02-09T08:50:30.551Z,8.11
2016-02-09T08:51:30.506Z,7.98
2016-02-09T08:52:30.491Z,8.03
2016-02-09T08:53:30.494Z,8.05
2016-02-09T08:54:30.495Z,8.01
2016-02-09T08:55:30.497Z,8.02
2016-02-09T08:56:30.483Z,8.05
2016-02-09T08:57:30.501Z,8.01
2016-02-09T08:58:30.476Z,8.11
2016-02-09T08:59:30.477Z,7.96
2016-02-09T09:00:30.480Z,8.09
2016-02-09T09:01:30.467Z,8.11
2016-02-09T09:02:30.453Z,8.08
2016-02-09T09:03:30.472Z,8.08
2016-02-09T09:04:30.458Z,8.11
2016-02-09T09:05:30.460Z,8.13
2016-02-09T09:06:30.447Z,8.09
2016-02-09T09:07:30.466Z,8.09
2016-02-09T09:08:30.438Z,8.09
2016-02-09T09:09:30.441Z,8.11
2016-02-09T09:10:30.444Z,8.11
2016-02-09T09:11:30.431Z,8.08
2016-02-09T09:12:30.433Z,8.13
2016-02-09T09:13:30.452Z,8.06
2016-02-09T09:14:30.456Z,8.09
2016-02-09T09:15:30.413Z,8.11
2016-02-09T09:16:30.431Z,8.08
2016-02-09T09:17:30.434Z,8.09
2016-02-09T09:18:30.411Z,8.08
2016-02-09T09:19:30.413Z,8.08
2016-02-09T09:20:30.435Z,8.17
2016-02-09T09:21:30.421Z,8.2
2016-02-09T09:22:30.409Z,8.17
2016-02-09T09:23:30.411Z,8.14
2016-02-09T09:24:30.413Z,8.17
2016-02-09T09:25:30.417Z,8.14
2016-02-09T09:26:30.248Z,8.13
2016-02-09T09:27:30.422Z,8.06
2016-02-09T09:28:30.380Z,8.08
2016-02-09T09:29:30.383Z,8.01
2016-02-09T09:30:30.386Z,8.13
2016-02-09T09:31:30.388Z,8.01
2016-02-09T09:32:30.391Z,7.98
2016-02-09T09:33:30.394Z,8.08
2016-02-09T09:34:30.381Z,8.03
2016-02-09T09:35:30.385Z,8.06
2016-02-09T09:36:30.387Z,7.96
2016-02-09T09:37:30.373Z,7.83
2016-02-09T09:38:30.362Z,7.88
2016-02-09T09:39:30.364Z,7.87
2016-02-09T09:40:30.413Z,7.81
2016-02-09T09:41:30.353Z,7.83
2016-02-09T09:42:30.357Z,7.85
2016-02-09T09:43:30.376Z,7.77
2016-02-09T09:44:30.362Z,7.77
2016-02-09T09:45:30.349Z,7.8
2016-02-09T09:46:30.337Z,7.83
2016-02-09T09:47:30.370Z,7.83
2016-02-09T09:48:30.337Z,7.81
2016-02-09T09:49:30.339Z,7.83
2016-02-09T09:50:30.357Z,7.88
2016-02-09T09:51:30.328Z,7.87
2016-02-09T09:52:30.316Z,7.99
2016-02-09T09:53:30.334Z,8.01
2016-02-09T09:54:30.321Z,8.05
2016-02-09T09:55:30.324Z,8.02
2016-02-09T09:56:30.312Z,8.02
2016-02-09T09:57:30.330Z,8.01
2016-02-09T09:58:30.302Z,8.02
2016-02-09T09:59:30.304Z,8.09
2016-02-09T10:00:30.306Z,7.98
2016-02-09T10:01:30.309Z,7.88
2016-02-09T10:02:30.312Z,8.02
2016-02-09T10:03:30.299Z,8.06
2016-02-09T10:04:30.161Z,7.96
2016-02-09T10:05:30.289Z,7.98
2016-02-09T10:06:30.292Z,7.85
2016-02-09T10:07:30.310Z,7.78
2016-02-09T10:08:30.281Z,7.83
2016-02-09T10:09:30.284Z,7.78
2016-02-09T10:10:30.286Z,7.74
2016-02-09T10:11:30.289Z,7.72
2016-02-09T10:12:30.277Z,7.64
2016-02-09T10:13:30.263Z,7.56
2016-02-09T10:14:30.266Z,7.61
2016-02-09T10:15:30.268Z,7.56
2016-02-09T10:16:30.272Z,7.58
2016-02-09T10:17:30.259Z,7.67
2016-02-09T10:18:30.262Z,7.64
2016-02-09T10:19:30.253Z,7.69
2016-02-09T10:20:30.256Z,7.85
2016-02-09T10:21:30.258Z,7.8
2016-02-09T10:22:30.244Z,7.99
2016-02-09T10:23:30.247Z,8.08
2016-02-09T10:24:30.250Z,8.09
2016-02-09T10:25:30.253Z,8.17
2016-02-09T10:26:30.240Z,8.21
2016-02-09T10:27:30.227Z,8.31
2016-02-09T10:28:30.230Z,8.28
2016-02-09T10:29:30.236Z,8.35
2016-02-09T10:30:30.223Z,8.45
2016-02-09T10:31:30.226Z,8.5
2016-02-09T10:32:30.245Z,8.44
2016-02-09T10:33:30.216Z,8.53
2016-02-09T10:34:30.219Z,8.56
2016-02-09T10:35:30.222Z,8.6
2016-02-09T10:36:30.224Z,8.66
2016-02-09T10:37:30.211Z,8.72
2016-02-09T10:38:30.214Z,8.69
2016-02-09T10:39:30.201Z,8.78
2016-02-09T10:40:30.219Z,8.87
2016-02-09T10:41:30.221Z,8.87
2016-02-09T10:42:30.209Z,8.86
2016-02-09T10:43:30.196Z,8.79
2016-02-09T10:44:30.198Z,8.92
2016-02-09T10:45:30.204Z,8.93
2016-02-09T10:46:30.190Z,8.93
2016-02-09T10:47:30.193Z,8.96
2016-02-09T10:48:30.196Z,8.93
2016-02-09T10:49:30.167Z,9.03
2016-02-09T10:50:30.170Z,9.03
2016-02-09T10:51:30.012Z,9.13
2016-02-09T10:52:30.170Z,9.12
2016-02-09T10:53:30.173Z,9.29
2016-02-09T10:54:30.176Z,9.37
2016-02-09T10:55:30.162Z,9.42
2016-02-09T10:56:30.165Z,9.59
2016-02-09T10:57:30.153Z,9.67
2016-02-09T10:58:30.155Z,9.7
2016-02-09T10:59:30.142Z,9.84
2016-02-09T11:00:30.161Z,10
2016-02-09T11:01:30.164Z,10.05
2016-02-09T11:02:30.151Z,10.17
2016-02-09T11:03:30.138Z,10.23
2016-02-09T11:04:30.157Z,10.34
2016-02-09T11:05:30.128Z,10.3
2016-02-09T11:06:30.131Z,10.39
2016-02-09T11:07:30.134Z,10.45
2016-02-09T11:08:30.137Z,10.43
2016-02-09T11:09:30.140Z,10.43
2016-02-09T11:10:30.130Z,10.38
2016-02-09T11:11:30.118Z,10.3
2016-02-09T11:12:30.121Z,10.31
2016-02-09T11:13:30.139Z,10.31
2016-02-09T11:14:30.110Z,10.33
2016-02-09T11:15:30.114Z,10.3
2016-02-09T11:16:30.116Z,10.27
2016-02-09T11:17:30.118Z,10.27
2016-02-09T11:18:30.109Z,10.28
2016-02-09T11:19:30.111Z,10.3
2016-02-09T11:20:30.099Z,10.24
2016-02-09T11:21:30.103Z,10.39
2016-02-09T11:22:30.122Z,10.46
2016-02-09T11:23:30.094Z,10.59
2016-02-09T11:24:30.096Z,10.55
2016-02-09T11:25:30.115Z,10.65
2016-02-09T11:26:30.086Z,10.82
2016-02-09T11:27:30.089Z,10.84
2016-02-09T11:28:30.091Z,10.9
2016-02-09T11:29:30.081Z,10.92
2016-02-09T11:30:30.083Z,10.97
2016-02-09T11:31:30.087Z,11.01
2016-02-09T11:32:30.089Z,11.13
2016-02-09T11:33:30.076Z,11.18
2016-02-09T11:34:30.078Z,11.15
2016-02-09T11:35:30.081Z,11.18
2016-02-09T11:36:30.068Z,11.18
2016-02-09T11:37:30.072Z,11.23
2016-02-09T11:38:30.247Z,11.25
2016-02-09T11:39:30.078Z,11.33
2016-02-09T11:40:30.066Z,11.35
2016-02-09T11:41:30.068Z,11.51
2016-02-09T11:42:30.071Z,11.56
2016-02-09T11:43:30.058Z,11.58
2016-02-09T11:44:30.061Z,11.59
2016-02-09T11:45:30.079Z,11.77
2016-02-09T11:46:30.053Z,11.76
2016-02-09T11:47:30.055Z,11.81
2016-02-09T11:48:30.058Z,11.88
2016-02-09T11:49:30.061Z,11.93
2016-02-09T11:50:30.063Z,11.93
2016-02-09T11:51:30.057Z,11.95
2016-02-09T11:52:30.060Z,11.85
2016-02-09T11:53:30.047Z,11.85
2016-02-09T11:54:30.037Z,11.85
2016-02-09T11:55:30.040Z,11.73
2016-02-09T11:56:30.043Z,11.68
2016-02-09T11:57:30.030Z,11.58
2016-02-09T11:58:30.033Z,11.38
2016-02-09T11:59:30.036Z,11.37
2016-02-09T12:00:30.023Z,11.18
2016-02-09T12:01:30.025Z,10.94
2016-02-09T12:02:30.031Z,10.89
2016-02-09T12:03:30.018Z,10.76
2016-02-09T12:04:30.010Z,10.53
2016-02-09T12:05:30.029Z,10.49
2016-02-09T12:06:30.016Z,10.42
2016-02-09T12:07:30.004Z,10.31
2016-02-09T12:08:30.021Z,10.23
2016-02-09T12:09:30.009Z,10.17
2016-02-09T12:10:29.999Z,10.13
2016-02-09T12:11:30.017Z,10.2
2016-02-09T12:12:30.020Z,10.1
2016-02-09T12:13:30.007Z,10.07
2016-02-09T12:14:29.994Z,10.03
2016-02-09T12:15:29.997Z,10.06
2016-02-09T12:16:30.000Z,9.97
2016-02-09T12:17:29.987Z,9.99
2016-02-09T12:18:29.989Z,9.85
2016-02-09T12:19:29.992Z,9.91
2016-02-09T12:20:29.995Z,9.95
2016-02-09T12:21:30.004Z,9.84
2016-02-09T12:22:29.975Z,9.9
2016-02-09T12:23:29.977Z,9.77
2016-02-09T12:24:30.012Z,9.74
2016-02-09T12:25:29.967Z,9.77
2016-02-09T12:26:29.985Z,9.82
2016-02-09T12:27:29.976Z,9.77
2016-02-09T12:28:29.978Z,9.81
2016-02-09T12:29:29.965Z,9.73
2016-02-09T12:30:29.972Z,9.84
2016-02-09T12:31:29.958Z,9.74
2016-02-09T12:32:29.805Z,9.82
2016-02-09T12:33:29.965Z,9.73
2016-02-09T12:34:29.952Z,9.77
2016-02-09T12:35:29.969Z,9.84
2016-02-09T12:36:29.958Z,9.72
2016-02-09T12:37:29.960Z,9.76
2016-02-09T12:38:29.947Z,9.82
2016-02-09T12:39:29.949Z,9.85
2016-02-09T12:40:29.952Z,9.9
2016-02-09T12:41:29.971Z,9.85
2016-02-09T12:42:29.957Z,9.9
2016-02-09T12:43:29.945Z,9.9
2016-02-09T12:44:29.932Z,9.73
2016-02-09T12:45:29.935Z,9.77
2016-02-09T12:46:29.938Z,9.7
2016-02-09T12:47:29.784Z,9.7
2016-02-09T12:48:29.927Z,9.63
2016-02-09T12:49:29.930Z,9.62
2016-02-09T12:50:29.934Z,9.56
2016-02-09T12:51:29.937Z,9.52
2016-02-09T12:52:29.924Z,9.59
2016-02-09T12:53:29.927Z,9.47
2016-02-09T12:54:29.931Z,9.51
2016-02-09T12:55:29.918Z,9.51
2016-02-09T12:56:29.920Z,9.36
2016-02-09T12:57:29.876Z,9.27
2016-02-09T12:58:29.909Z,9.4
2016-02-09T12:59:29.928Z,9.29
2016-02-09T13:00:29.915Z,9.26
2016-02-09T13:01:29.902Z,9.26
2016-02-09T13:02:29.905Z,9.16
2016-02-09T13:03:29.909Z,9.19
2016-02-09T13:04:29.896Z,9.19
2016-02-09T13:05:29.898Z,9.11
2016-02-09T13:06:29.901Z,8.99
2016-02-09T13:07:29.904Z,9.08
2016-02-09T13:08:29.890Z,9
2016-02-09T13:09:29.878Z,8.92
2016-02-09T13:10:29.881Z,8.97
2016-02-09T13:11:29.898Z,8.95
2016-02-09T13:12:29.886Z,8.9
2016-02-09T13:13:29.889Z,8.93
2016-02-09T13:14:29.875Z,8.87
2016-02-09T13:15:29.894Z,8.86
2016-02-09T13:16:29.897Z,8.89
2016-02-09T13:17:29.869Z,8.96